sensor_id;sensor_type;location;lat;lon;timestamp;P1;durP1;ratioP1;P2;durP2;ratioP2
24143;SDS011;12307;50.828;6.080;2022-08-21T00:00:34;2.22;;;1.98;;
24143;SDS011;12307;50.828;6.080;2022-08-21T00:03:05;2.28;;;1.88;;
24143;SDS011;12307;50.828;6.080;2022-08-21T00:05:35;3.50;;;1.75;;
24143;SDS011;12307;50.828;6.080;2022-08-21T00:08:02;2.17;;;1.65;;
24143;SDS011;12307;50.828;6.080;2022-08-21T00:10:28;2.30;;;1.73;;
24143;SDS011;12307;50.828;6.080;2022-08-21T00:12:54;1.98;;;1.60;;
24143;SDS011;12307;50.828;6.080;2022-08-21T00:15:22;2.25;;;1.80;;
24143;SDS011;12307;50.828;6.080;2022-08-21T00:17:51;2.20;;;2.00;;
24143;SDS011;12307;50.828;6.080;2022-08-21T00:20:18;2.28;;;1.80;;
24143;SDS011;12307;50.828;6.080;2022-08-21T00:22:44;2.42;;;2.00;;
24143;SDS011;12307;50.828;6.080;2022-08-21T00:25:11;3.42;;;2.25;;
24143;SDS011;12307;50.828;6.080;2022-08-21T00:27:38;2.17;;;1.98;;
24143;SDS011;12307;50.828;6.080;2022-08-21T00:30:04;2.28;;;1.80;;
24143;SDS011;12307;50.828;6.080;2022-08-21T00:32:32;1.95;;;1.75;;
24143;SDS011;12307;50.828;6.080;2022-08-21T00:34:58;2.78;;;2.00;;
24143;SDS011;12307;50.828;6.080;2022-08-21T00:37:25;2.85;;;1.90;;
24143;SDS011;12307;50.828;6.080;2022-08-21T00:39:52;2.30;;;1.67;;
24143;SDS011;12307;50.828;6.080;2022-08-21T00:42:18;2.40;;;1.95;;
24143;SDS011;12307;50.828;6.080;2022-08-21T00:44:46;2.40;;;1.95;;
24143;SDS011;12307;50.828;6.080;2022-08-21T00:47:13;1.92;;;1.70;;
24143;SDS011;12307;50.828;6.080;2022-08-21T00:49:39;4.32;;;1.92;;
24143;SDS011;12307;50.828;6.080;2022-08-21T00:52:06;2.58;;;1.63;;
24143;SDS011;12307;50.828;6.080;2022-08-21T00:54:36;2.08;;;1.88;;
24143;SDS011;12307;50.828;6.080;2022-08-21T00:57:04;2.55;;;2.03;;
24143;SDS011;12307;50.828;6.080;2022-08-21T00:59:34;2.03;;;1.75;;
24143;SDS011;12307;50.828;6.080;2022-08-21T01:02:03;2.38;;;1.98;;
24143;SDS011;12307;50.828;6.080;2022-08-21T01:04:30;2.03;;;1.60;;
24143;SDS011;12307;50.828;6.080;2022-08-21T01:06:56;2.03;;;1.80;;
24143;SDS011;12307;50.828;6.080;2022-08-21T01:09:22;1.83;;;1.60;;
24143;SDS011;12307;50.828;6.080;2022-08-21T01:11:49;2.38;;;1.98;;
24143;SDS011;12307;50.828;6.080;2022-08-21T01:14:15;2.25;;;1.80;;
24143;SDS011;12307;50.828;6.080;2022-08-21T01:16:44;2.00;;;1.77;;
24143;SDS011;12307;50.828;6.080;2022-08-21T01:19:11;1.92;;;1.70;;
24143;SDS011;12307;50.828;6.080;2022-08-21T01:21:40;3.25;;;1.90;;
24143;SDS011;12307;50.828;6.080;2022-08-21T01:24:06;2.08;;;1.80;;
24143;SDS011;12307;50.828;6.080;2022-08-21T01:26:33;2.33;;;2.08;;
24143;SDS011;12307;50.828;6.080;2022-08-21T01:29:02;1.95;;;1.77;;
24143;SDS011;12307;50.828;6.080;2022-08-21T01:31:31;3.85;;;2.03;;
24143;SDS011;12307;50.828;6.080;2022-08-21T01:33:58;2.53;;;1.90;;
24143;SDS011;12307;50.828;6.080;2022-08-21T01:36:25;2.75;;;1.90;;
24143;SDS011;12307;50.828;6.080;2022-08-21T01:38:53;2.30;;;1.70;;
24143;SDS011;12307;50.828;6.080;2022-08-21T01:41:19;3.63;;;2.15;;
24143;SDS011;12307;50.828;6.080;2022-08-21T01:43:44;2.20;;;1.95;;
24143;SDS011;12307;50.828;6.080;2022-08-21T01:46:11;1.70;;;1.58;;
24143;SDS011;12307;50.828;6.080;2022-08-21T01:48:37;2.60;;;1.70;;
24143;SDS011;12307;50.828;6.080;2022-08-21T01:51:04;1.77;;;1.65;;
24143;SDS011;12307;50.828;6.080;2022-08-21T01:53:31;1.75;;;1.60;;
24143;SDS011;12307;50.828;6.080;2022-08-21T01:56:00;2.30;;;1.85;;
24143;SDS011;12307;50.828;6.080;2022-08-21T01:58:26;2.58;;;1.75;;
24143;SDS011;12307;50.828;6.080;2022-08-21T02:00:51;2.55;;;1.77;;
24143;SDS011;12307;50.828;6.080;2022-08-21T02:03:17;2.03;;;1.58;;
24143;SDS011;12307;50.828;6.080;2022-08-21T02:05:43;2.60;;;1.80;;
24143;SDS011;12307;50.828;6.080;2022-08-21T02:08:08;2.65;;;1.88;;
24143;SDS011;12307;50.828;6.080;2022-08-21T02:10:34;2.38;;;1.90;;
24143;SDS011;12307;50.828;6.080;2022-08-21T02:13:01;2.20;;;1.63;;
24143;SDS011;12307;50.828;6.080;2022-08-21T02:15:28;2.13;;;1.67;;
24143;SDS011;12307;50.828;6.080;2022-08-21T02:17:55;2.42;;;1.77;;
24143;SDS011;12307;50.828;6.080;2022-08-21T02:20:24;2.20;;;1.70;;
24143;SDS011;12307;50.828;6.080;2022-08-21T02:22:52;2.33;;;1.63;;
24143;SDS011;12307;50.828;6.080;2022-08-21T02:25:19;2.45;;;1.95;;
24143;SDS011;12307;50.828;6.080;2022-08-21T02:27:45;1.90;;;1.70;;
24143;SDS011;12307;50.828;6.080;2022-08-21T02:30:14;2.22;;;1.75;;
24143;SDS011;12307;50.828;6.080;2022-08-21T02:32:42;2.08;;;1.73;;
24143;SDS011;12307;50.828;6.080;2022-08-21T02:35:08;2.20;;;1.90;;
24143;SDS011;12307;50.828;6.080;2022-08-21T02:37:42;2.70;;;1.80;;
24143;SDS011;12307;50.828;6.080;2022-08-21T02:40:09;2.35;;;1.90;;
24143;SDS011;12307;50.828;6.080;2022-08-21T02:42:36;2.55;;;1.95;;
24143;SDS011;12307;50.828;6.080;2022-08-21T02:45:02;2.53;;;1.70;;
24143;SDS011;12307;50.828;6.080;2022-08-21T02:47:29;2.30;;;1.92;;
24143;SDS011;12307;50.828;6.080;2022-08-21T02:49:55;2.08;;;1.65;;
24143;SDS011;12307;50.828;6.080;2022-08-21T02:52:21;2.00;;;1.80;;
24143;SDS011;12307;50.828;6.080;2022-08-21T02:54:46;1.92;;;1.55;;
24143;SDS011;12307;50.828;6.080;2022-08-21T02:57:12;2.80;;;1.67;;
24143;SDS011;12307;50.828;6.080;2022-08-21T02:59:38;1.67;;;1.58;;
24143;SDS011;12307;50.828;6.080;2022-08-21T03:02:05;2.38;;;1.70;;
24143;SDS011;12307;50.828;6.080;2022-08-21T03:04:32;2.30;;;1.70;;
24143;SDS011;12307;50.828;6.080;2022-08-21T03:06:58;2.03;;;1.80;;
24143;SDS011;12307;50.828;6.080;2022-08-21T03:09:25;2.20;;;1.90;;
24143;SDS011;12307;50.828;6.080;2022-08-21T03:11:51;1.92;;;1.73;;
24143;SDS011;12307;50.828;6.080;2022-08-21T03:14:17;2.30;;;1.75;;
24143;SDS011;12307;50.828;6.080;2022-08-21T03:16:42;1.95;;;1.67;;
24143;SDS011;12307;50.828;6.080;2022-08-21T03:19:08;3.28;;;1.85;;
24143;SDS011;12307;50.828;6.080;2022-08-21T03:21:35;1.60;;;1.50;;
24143;SDS011;12307;50.828;6.080;2022-08-21T03:24:01;2.10;;;1.70;;
24143;SDS011;12307;50.828;6.080;2022-08-21T03:26:27;2.45;;;1.85;;
24143;SDS011;12307;50.828;6.080;2022-08-21T03:28:53;1.98;;;1.63;;
24143;SDS011;12307;50.828;6.080;2022-08-21T03:31:19;2.22;;;1.70;;
24143;SDS011;12307;50.828;6.080;2022-08-21T03:33:46;1.95;;;1.75;;
24143;SDS011;12307;50.828;6.080;2022-08-21T03:36:12;1.95;;;1.60;;
24143;SDS011;12307;50.828;6.080;2022-08-21T03:38:41;1.88;;;1.60;;
24143;SDS011;12307;50.828;6.080;2022-08-21T03:41:07;1.67;;;1.50;;
24143;SDS011;12307;50.828;6.080;2022-08-21T03:43:33;2.47;;;1.80;;
24143;SDS011;12307;50.828;6.080;2022-08-21T03:46:00;2.88;;;1.73;;
24143;SDS011;12307;50.828;6.080;2022-08-21T03:48:26;2.13;;;1.65;;
24143;SDS011;12307;50.828;6.080;2022-08-21T03:50:52;1.88;;;1.67;;
24143;SDS011;12307;50.828;6.080;2022-08-21T03:53:18;1.55;;;1.42;;
24143;SDS011;12307;50.828;6.080;2022-08-21T03:55:46;2.13;;;1.73;;
24143;SDS011;12307;50.828;6.080;2022-08-21T03:58:13;2.08;;;1.63;;
24143;SDS011;12307;50.828;6.080;2022-08-21T04:00:39;2.38;;;1.77;;
24143;SDS011;12307;50.828;6.080;2022-08-21T04:03:05;1.80;;;1.60;;
24143;SDS011;12307;50.828;6.080;2022-08-21T04:05:31;2.78;;;1.67;;
24143;SDS011;12307;50.828;6.080;2022-08-21T04:07:58;2.00;;;1.52;;
24143;SDS011;12307;50.828;6.080;2022-08-21T04:10:26;1.73;;;1.52;;
24143;SDS011;12307;50.828;6.080;2022-08-21T04:12:54;2.25;;;1.58;;
24143;SDS011;12307;50.828;6.080;2022-08-21T04:15:21;1.73;;;1.63;;
24143;SDS011;12307;50.828;6.080;2022-08-21T04:17:47;2.10;;;1.80;;
24143;SDS011;12307;50.828;6.080;2022-08-21T04:20:13;2.60;;;1.67;;
24143;SDS011;12307;50.828;6.080;2022-08-21T04:22:39;2.65;;;1.85;;
24143;SDS011;12307;50.828;6.080;2022-08-21T04:25:05;2.20;;;1.92;;
24143;SDS011;12307;50.828;6.080;2022-08-21T04:27:32;2.35;;;1.45;;
24143;SDS011;12307;50.828;6.080;2022-08-21T04:29:59;2.35;;;1.80;;
24143;SDS011;12307;50.828;6.080;2022-08-21T04:32:26;1.98;;;1.50;;
24143;SDS011;12307;50.828;6.080;2022-08-21T04:34:58;1.98;;;1.63;;
24143;SDS011;12307;50.828;6.080;2022-08-21T04:37:24;2.17;;;1.60;;
24143;SDS011;12307;50.828;6.080;2022-08-21T04:39:50;2.50;;;1.92;;
24143;SDS011;12307;50.828;6.080;2022-08-21T04:42:16;2.45;;;1.58;;
24143;SDS011;12307;50.828;6.080;2022-08-21T04:44:42;3.28;;;2.00;;
24143;SDS011;12307;50.828;6.080;2022-08-21T04:47:09;1.75;;;1.60;;
24143;SDS011;12307;50.828;6.080;2022-08-21T04:49:35;1.85;;;1.60;;
24143;SDS011;12307;50.828;6.080;2022-08-21T04:52:00;2.10;;;1.60;;
24143;SDS011;12307;50.828;6.080;2022-08-21T04:54:27;1.95;;;1.60;;
24143;SDS011;12307;50.828;6.080;2022-08-21T04:56:53;1.98;;;1.65;;
24143;SDS011;12307;50.828;6.080;2022-08-21T04:59:25;2.05;;;1.75;;
24143;SDS011;12307;50.828;6.080;2022-08-21T05:01:54;1.98;;;1.40;;
24143;SDS011;12307;50.828;6.080;2022-08-21T05:04:24;2.03;;;1.70;;
24143;SDS011;12307;50.828;6.080;2022-08-21T05:06:55;2.15;;;1.60;;
24143;SDS011;12307;50.828;6.080;2022-08-21T05:09:22;2.40;;;1.67;;
24143;SDS011;12307;50.828;6.080;2022-08-21T05:11:49;2.00;;;1.70;;
24143;SDS011;12307;50.828;6.080;2022-08-21T05:14:16;2.08;;;1.60;;
24143;SDS011;12307;50.828;6.080;2022-08-21T05:16:42;1.85;;;1.38;;
24143;SDS011;12307;50.828;6.080;2022-08-21T05:19:09;2.70;;;1.95;;
24143;SDS011;12307;50.828;6.080;2022-08-21T05:21:38;1.95;;;1.50;;
24143;SDS011;12307;50.828;6.080;2022-08-21T05:24:06;1.73;;;1.50;;
24143;SDS011;12307;50.828;6.080;2022-08-21T05:26:32;1.90;;;1.63;;
24143;SDS011;12307;50.828;6.080;2022-08-21T05:28:58;2.17;;;1.40;;
24143;SDS011;12307;50.828;6.080;2022-08-21T05:31:23;1.70;;;1.50;;
24143;SDS011;12307;50.828;6.080;2022-08-21T05:33:49;2.70;;;1.55;;
24143;SDS011;12307;50.828;6.080;2022-08-21T05:36:16;1.80;;;1.58;;
24143;SDS011;12307;50.828;6.080;2022-08-21T05:38:43;2.35;;;1.88;;
24143;SDS011;12307;50.828;6.080;2022-08-21T05:41:09;2.47;;;1.55;;
24143;SDS011;12307;50.828;6.080;2022-08-21T05:43:34;1.63;;;1.42;;
24143;SDS011;12307;50.828;6.080;2022-08-21T05:46:01;1.80;;;1.58;;
24143;SDS011;12307;50.828;6.080;2022-08-21T05:48:27;1.63;;;1.40;;
24143;SDS011;12307;50.828;6.080;2022-08-21T05:50:53;1.90;;;1.60;;
24143;SDS011;12307;50.828;6.080;2022-08-21T05:53:20;2.17;;;1.67;;
24143;SDS011;12307;50.828;6.080;2022-08-21T05:55:48;1.67;;;1.50;;
24143;SDS011;12307;50.828;6.080;2022-08-21T05:58:16;2.13;;;1.42;;
24143;SDS011;12307;50.828;6.080;2022-08-21T06:00:44;2.17;;;1.52;;
24143;SDS011;12307;50.828;6.080;2022-08-21T06:03:13;1.50;;;1.40;;
24143;SDS011;12307;50.828;6.080;2022-08-21T06:05:41;1.98;;;1.50;;
24143;SDS011;12307;50.828;6.080;2022-08-21T06:08:07;1.38;;;1.27;;
24143;SDS011;12307;50.828;6.080;2022-08-21T06:10:33;1.88;;;1.58;;
24143;SDS011;12307;50.828;6.080;2022-08-21T06:13:00;1.88;;;1.48;;
24143;SDS011;12307;50.828;6.080;2022-08-21T06:15:26;1.83;;;1.60;;
24143;SDS011;12307;50.828;6.080;2022-08-21T06:17:52;2.55;;;1.50;;
24143;SDS011;12307;50.828;6.080;2022-08-21T06:20:18;2.17;;;1.33;;
24143;SDS011;12307;50.828;6.080;2022-08-21T06:22:44;1.80;;;1.45;;
24143;SDS011;12307;50.828;6.080;2022-08-21T06:25:10;1.70;;;1.60;;
24143;SDS011;12307;50.828;6.080;2022-08-21T06:27:35;2.03;;;1.27;;
24143;SDS011;12307;50.828;6.080;2022-08-21T06:30:03;2.13;;;1.42;;
24143;SDS011;12307;50.828;6.080;2022-08-21T06:32:29;2.35;;;1.83;;
24143;SDS011;12307;50.828;6.080;2022-08-21T06:34:54;2.40;;;1.52;;
24143;SDS011;12307;50.828;6.080;2022-08-21T06:37:20;2.13;;;1.60;;
24143;SDS011;12307;50.828;6.080;2022-08-21T06:39:47;2.53;;;1.63;;
24143;SDS011;12307;50.828;6.080;2022-08-21T06:42:13;1.95;;;1.50;;
24143;SDS011;12307;50.828;6.080;2022-08-21T06:44:39;2.15;;;1.40;;
24143;SDS011;12307;50.828;6.080;2022-08-21T06:47:06;2.38;;;1.42;;
24143;SDS011;12307;50.828;6.080;2022-08-21T06:49:32;1.88;;;1.50;;
24143;SDS011;12307;50.828;6.080;2022-08-21T06:51:57;1.40;;;1.23;;
24143;SDS011;12307;50.828;6.080;2022-08-21T06:54:23;2.17;;;1.48;;
24143;SDS011;12307;50.828;6.080;2022-08-21T06:56:49;2.10;;;1.40;;
24143;SDS011;12307;50.828;6.080;2022-08-21T06:59:14;1.92;;;1.30;;
24143;SDS011;12307;50.828;6.080;2022-08-21T07:01:40;1.85;;;1.42;;
24143;SDS011;12307;50.828;6.080;2022-08-21T07:04:07;1.88;;;1.45;;
24143;SDS011;12307;50.828;6.080;2022-08-21T07:06:33;2.47;;;1.48;;
24143;SDS011;12307;50.828;6.080;2022-08-21T07:08:59;1.90;;;1.45;;
24143;SDS011;12307;50.828;6.080;2022-08-21T07:11:26;2.00;;;1.50;;
24143;SDS011;12307;50.828;6.080;2022-08-21T07:13:52;1.90;;;1.70;;
24143;SDS011;12307;50.828;6.080;2022-08-21T07:16:19;2.25;;;1.50;;
24143;SDS011;12307;50.828;6.080;2022-08-21T07:18:45;2.50;;;1.60;;
24143;SDS011;12307;50.828;6.080;2022-08-21T07:21:12;1.77;;;1.23;;
24143;SDS011;12307;50.828;6.080;2022-08-21T07:23:40;2.13;;;1.42;;
24143;SDS011;12307;50.828;6.080;2022-08-21T07:26:06;1.70;;;1.58;;
24143;SDS011;12307;50.828;6.080;2022-08-21T07:28:33;1.88;;;1.40;;
24143;SDS011;12307;50.828;6.080;2022-08-21T07:31:00;1.85;;;1.30;;
24143;SDS011;12307;50.828;6.080;2022-08-21T07:33:27;1.67;;;1.38;;
24143;SDS011;12307;50.828;6.080;2022-08-21T07:35:55;1.90;;;1.33;;
24143;SDS011;12307;50.828;6.080;2022-08-21T07:38:22;2.28;;;1.58;;
24143;SDS011;12307;50.828;6.080;2022-08-21T07:40:48;1.70;;;1.45;;
24143;SDS011;12307;50.828;6.080;2022-08-21T07:43:15;1.63;;;1.42;;
24143;SDS011;12307;50.828;6.080;2022-08-21T07:45:43;1.73;;;1.50;;
24143;SDS011;12307;50.828;6.080;2022-08-21T07:48:08;1.88;;;1.30;;
24143;SDS011;12307;50.828;6.080;2022-08-21T07:50:34;1.55;;;1.35;;
24143;SDS011;12307;50.828;6.080;2022-08-21T07:53:01;1.88;;;1.40;;
24143;SDS011;12307;50.828;6.080;2022-08-21T07:55:28;2.10;;;1.38;;
24143;SDS011;12307;50.828;6.080;2022-08-21T07:57:54;1.85;;;1.30;;
24143;SDS011;12307;50.828;6.080;2022-08-21T08:00:21;2.00;;;1.60;;
24143;SDS011;12307;50.828;6.080;2022-08-21T08:02:49;1.92;;;1.40;;
24143;SDS011;12307;50.828;6.080;2022-08-21T08:05:16;1.67;;;1.25;;
24143;SDS011;12307;50.828;6.080;2022-08-21T08:07:44;1.55;;;1.42;;
24143;SDS011;12307;50.828;6.080;2022-08-21T08:10:10;1.20;;;1.10;;
24143;SDS011;12307;50.828;6.080;2022-08-21T08:12:38;1.52;;;1.25;;
24143;SDS011;12307;50.828;6.080;2022-08-21T08:15:05;1.30;;;1.20;;
24143;SDS011;12307;50.828;6.080;2022-08-21T08:17:33;2.30;;;1.40;;
24143;SDS011;12307;50.828;6.080;2022-08-21T08:19:59;1.90;;;1.45;;
24143;SDS011;12307;50.828;6.080;2022-08-21T08:22:25;2.15;;;1.40;;
24143;SDS011;12307;50.828;6.080;2022-08-21T08:24:52;1.63;;;1.27;;
24143;SDS011;12307;50.828;6.080;2022-08-21T08:27:18;2.47;;;1.30;;
24143;SDS011;12307;50.828;6.080;2022-08-21T08:29:49;2.33;;;1.30;;
24143;SDS011;12307;50.828;6.080;2022-08-21T08:32:16;1.67;;;1.25;;
24143;SDS011;12307;50.828;6.080;2022-08-21T08:34:42;1.80;;;1.38;;
24143;SDS011;12307;50.828;6.080;2022-08-21T08:37:08;1.80;;;1.40;;
24143;SDS011;12307;50.828;6.080;2022-08-21T08:39:34;1.80;;;1.30;;
24143;SDS011;12307;50.828;6.080;2022-08-21T08:42:03;1.33;;;1.23;;
24143;SDS011;12307;50.828;6.080;2022-08-21T08:44:31;1.55;;;1.20;;
24143;SDS011;12307;50.828;6.080;2022-08-21T08:46:59;1.38;;;1.10;;
24143;SDS011;12307;50.828;6.080;2022-08-21T08:49:27;1.88;;;1.33;;
24143;SDS011;12307;50.828;6.080;2022-08-21T08:51:57;1.80;;;1.30;;
24143;SDS011;12307;50.828;6.080;2022-08-21T08:54:27;1.88;;;1.27;;
24143;SDS011;12307;50.828;6.080;2022-08-21T08:56:57;1.45;;;1.25;;
24143;SDS011;12307;50.828;6.080;2022-08-21T08:59:26;1.42;;;1.15;;
24143;SDS011;12307;50.828;6.080;2022-08-21T09:01:59;1.65;;;1.20;;
24143;SDS011;12307;50.828;6.080;2022-08-21T09:04:26;2.55;;;1.60;;
24143;SDS011;12307;50.828;6.080;2022-08-21T09:06:56;1.50;;;1.38;;
24143;SDS011;12307;50.828;6.080;2022-08-21T09:09:34;1.38;;;1.13;;
24143;SDS011;12307;50.828;6.080;2022-08-21T09:12:15;1.50;;;1.20;;
24143;SDS011;12307;50.828;6.080;2022-08-21T09:14:50;2.72;;;1.40;;
24143;SDS011;12307;50.828;6.080;2022-08-21T09:17:32;1.33;;;1.08;;
24143;SDS011;12307;50.828;6.080;2022-08-21T09:20:09;1.63;;;1.30;;
24143;SDS011;12307;50.828;6.080;2022-08-21T09:22:44;1.38;;;1.20;;
24143;SDS011;12307;50.828;6.080;2022-08-21T09:25:22;1.83;;;1.30;;
24143;SDS011;12307;50.828;6.080;2022-08-21T09:27:50;2.08;;;1.50;;
24143;SDS011;12307;50.828;6.080;2022-08-21T09:30:16;1.77;;;1.30;;
24143;SDS011;12307;50.828;6.080;2022-08-21T09:32:44;1.50;;;1.20;;
24143;SDS011;12307;50.828;6.080;2022-08-21T09:35:11;1.40;;;1.17;;
24143;SDS011;12307;50.828;6.080;2022-08-21T09:37:46;1.70;;;1.20;;
24143;SDS011;12307;50.828;6.080;2022-08-21T09:40:15;1.95;;;1.20;;
24143;SDS011;12307;50.828;6.080;2022-08-21T09:42:53;1.70;;;1.20;;
24143;SDS011;12307;50.828;6.080;2022-08-21T09:45:20;1.67;;;1.30;;
24143;SDS011;12307;50.828;6.080;2022-08-21T09:47:47;1.30;;;1.20;;
24143;SDS011;12307;50.828;6.080;2022-08-21T09:50:15;2.15;;;1.15;;
24143;SDS011;12307;50.828;6.080;2022-08-21T09:52:43;2.13;;;1.35;;
24143;SDS011;12307;50.828;6.080;2022-08-21T09:55:15;1.10;;;1.00;;
24143;SDS011;12307;50.828;6.080;2022-08-21T09:58:03;1.42;;;1.10;;
24143;SDS011;12307;50.828;6.080;2022-08-21T10:00:31;1.30;;;1.10;;
24143;SDS011;12307;50.828;6.080;2022-08-21T10:03:09;2.05;;;1.38;;
24143;SDS011;12307;50.828;6.080;2022-08-21T10:05:38;1.30;;;1.20;;
24143;SDS011;12307;50.828;6.080;2022-08-21T10:08:05;1.23;;;0.90;;
24143;SDS011;12307;50.828;6.080;2022-08-21T10:10:42;1.52;;;1.30;;
24143;SDS011;12307;50.828;6.080;2022-08-21T10:13:09;1.33;;;1.15;;
24143;SDS011;12307;50.828;6.080;2022-08-21T10:15:40;1.23;;;1.10;;
24143;SDS011;12307;50.828;6.080;2022-08-21T10:18:15;1.42;;;1.10;;
24143;SDS011;12307;50.828;6.080;2022-08-21T10:20:47;2.00;;;1.30;;
24143;SDS011;12307;50.828;6.080;2022-08-21T10:23:29;1.80;;;1.30;;
24143;SDS011;12307;50.828;6.080;2022-08-21T10:28:56;1.52;;;1.20;;
24143;SDS011;12307;50.828;6.080;2022-08-21T10:31:30;2.55;;;1.10;;
24143;SDS011;12307;50.828;6.080;2022-08-21T10:34:07;1.65;;;1.15;;
24143;SDS011;12307;50.828;6.080;2022-08-21T10:36:44;1.70;;;1.17;;
24143;SDS011;12307;50.828;6.080;2022-08-21T10:39:27;1.75;;;1.20;;
24143;SDS011;12307;50.828;6.080;2022-08-21T10:42:02;1.38;;;1.23;;
24143;SDS011;12307;50.828;6.080;2022-08-21T10:44:56;1.40;;;1.20;;
24143;SDS011;12307;50.828;6.080;2022-08-21T10:47:35;1.48;;;1.20;;
24143;SDS011;12307;50.828;6.080;2022-08-21T10:50:07;2.05;;;1.30;;
24143;SDS011;12307;50.828;6.080;2022-08-21T10:52:44;2.17;;;1.38;;
24143;SDS011;12307;50.828;6.080;2022-08-21T10:55:17;1.70;;;1.20;;
24143;SDS011;12307;50.828;6.080;2022-08-21T10:57:46;2.30;;;1.30;;
24143;SDS011;12307;50.828;6.080;2022-08-21T11:00:16;2.47;;;1.38;;
24143;SDS011;12307;50.828;6.080;2022-08-21T11:02:45;2.13;;;1.40;;
24143;SDS011;12307;50.828;6.080;2022-08-21T11:05:19;1.27;;;0.93;;
24143;SDS011;12307;50.828;6.080;2022-08-21T11:07:51;1.20;;;1.10;;
24143;SDS011;12307;50.828;6.080;2022-08-21T11:10:20;1.50;;;1.10;;
24143;SDS011;12307;50.828;6.080;2022-08-21T11:12:51;2.38;;;1.40;;
24143;SDS011;12307;50.828;6.080;2022-08-21T11:15:24;1.70;;;1.20;;
24143;SDS011;12307;50.828;6.080;2022-08-21T11:17:59;1.40;;;1.02;;
24143;SDS011;12307;50.828;6.080;2022-08-21T11:20:32;1.33;;;1.23;;
24143;SDS011;12307;50.828;6.080;2022-08-21T11:23:04;1.85;;;1.20;;
24143;SDS011;12307;50.828;6.080;2022-08-21T11:25:35;1.65;;;1.20;;
24143;SDS011;12307;50.828;6.080;2022-08-21T11:28:05;1.15;;;1.05;;
24143;SDS011;12307;50.828;6.080;2022-08-21T11:30:39;1.75;;;1.10;;
24143;SDS011;12307;50.828;6.080;2022-08-21T11:33:14;1.48;;;0.98;;
24143;SDS011;12307;50.828;6.080;2022-08-21T11:35:57;2.30;;;1.20;;
24143;SDS011;12307;50.828;6.080;2022-08-21T11:38:34;1.40;;;1.20;;
24143;SDS011;12307;50.828;6.080;2022-08-21T11:41:07;1.27;;;1.00;;
24143;SDS011;12307;50.828;6.080;2022-08-21T11:43:42;1.33;;;1.02;;
24143;SDS011;12307;50.828;6.080;2022-08-21T11:46:12;1.40;;;1.17;;
24143;SDS011;12307;50.828;6.080;2022-08-21T11:48:48;2.22;;;1.00;;
24143;SDS011;12307;50.828;6.080;2022-08-21T11:51:27;1.77;;;1.10;;
24143;SDS011;12307;50.828;6.080;2022-08-21T11:54:00;2.50;;;1.20;;
24143;SDS011;12307;50.828;6.080;2022-08-21T11:56:33;1.23;;;1.00;;
24143;SDS011;12307;50.828;6.080;2022-08-21T11:59:04;2.20;;;1.40;;
24143;SDS011;12307;50.828;6.080;2022-08-21T12:01:34;1.27;;;1.10;;
24143;SDS011;12307;50.828;6.080;2022-08-21T12:04:06;1.35;;;1.23;;
24143;SDS011;12307;50.828;6.080;2022-08-21T12:06:37;1.55;;;1.10;;
24143;SDS011;12307;50.828;6.080;2022-08-21T12:09:05;1.30;;;1.20;;
24143;SDS011;12307;50.828;6.080;2022-08-21T12:11:32;1.35;;;1.15;;
24143;SDS011;12307;50.828;6.080;2022-08-21T12:14:12;1.60;;;1.10;;
24143;SDS011;12307;50.828;6.080;2022-08-21T12:16:40;1.58;;;1.10;;
24143;SDS011;12307;50.828;6.080;2022-08-21T12:19:08;1.38;;;1.15;;
24143;SDS011;12307;50.828;6.080;2022-08-21T12:21:47;1.40;;;1.20;;
24143;SDS011;12307;50.828;6.080;2022-08-21T12:24:16;1.10;;;1.00;;
24143;SDS011;12307;50.828;6.080;2022-08-21T12:26:50;1.50;;;1.05;;
24143;SDS011;12307;50.828;6.080;2022-08-21T12:29:21;1.33;;;1.20;;
24143;SDS011;12307;50.828;6.080;2022-08-21T12:31:53;2.67;;;1.20;;
24143;SDS011;12307;50.828;6.080;2022-08-21T12:34:24;1.20;;;1.00;;
24143;SDS011;12307;50.828;6.080;2022-08-21T12:36:58;1.20;;;1.10;;
24143;SDS011;12307;50.828;6.080;2022-08-21T12:39:27;1.45;;;1.08;;
24143;SDS011;12307;50.828;6.080;2022-08-21T12:41:57;1.48;;;1.02;;
24143;SDS011;12307;50.828;6.080;2022-08-21T12:44:28;1.60;;;1.20;;
24143;SDS011;12307;50.828;6.080;2022-08-21T12:47:03;2.05;;;1.35;;
24143;SDS011;12307;50.828;6.080;2022-08-21T12:49:31;1.48;;;1.10;;
24143;SDS011;12307;50.828;6.080;2022-08-21T12:52:09;1.45;;;1.08;;
24143;SDS011;12307;50.828;6.080;2022-08-21T12:54:42;1.15;;;1.05;;
24143;SDS011;12307;50.828;6.080;2022-08-21T12:57:16;1.20;;;1.00;;
24143;SDS011;12307;50.828;6.080;2022-08-21T12:59:44;1.15;;;1.02;;
24143;SDS011;12307;50.828;6.080;2022-08-21T13:02:12;2.33;;;1.30;;
24143;SDS011;12307;50.828;6.080;2022-08-21T13:04:41;1.50;;;1.30;;
24143;SDS011;12307;50.828;6.080;2022-08-21T13:07:11;1.70;;;1.27;;
24143;SDS011;12307;50.828;6.080;2022-08-21T13:09:41;1.27;;;1.05;;
24143;SDS011;12307;50.828;6.080;2022-08-21T13:12:11;1.85;;;1.00;;
24143;SDS011;12307;50.828;6.080;2022-08-21T13:14:38;1.17;;;1.08;;
24143;SDS011;12307;50.828;6.080;2022-08-21T13:17:05;1.13;;;1.00;;
24143;SDS011;12307;50.828;6.080;2022-08-21T13:19:32;1.55;;;1.00;;
24143;SDS011;12307;50.828;6.080;2022-08-21T13:21:59;1.65;;;1.10;;
24143;SDS011;12307;50.828;6.080;2022-08-21T13:24:27;1.85;;;1.20;;
24143;SDS011;12307;50.828;6.080;2022-08-21T13:26:55;1.60;;;1.33;;
24143;SDS011;12307;50.828;6.080;2022-08-21T13:29:22;1.63;;;1.00;;
24143;SDS011;12307;50.828;6.080;2022-08-21T13:31:52;1.38;;;1.00;;
24143;SDS011;12307;50.828;6.080;2022-08-21T13:34:21;2.08;;;1.10;;
24143;SDS011;12307;50.828;6.080;2022-08-21T13:36:50;2.17;;;1.13;;
24143;SDS011;12307;50.828;6.080;2022-08-21T13:39:19;1.55;;;1.15;;
24143;SDS011;12307;50.828;6.080;2022-08-21T13:41:48;1.20;;;1.00;;
24143;SDS011;12307;50.828;6.080;2022-08-21T13:44:16;1.20;;;1.10;;
24143;SDS011;12307;50.828;6.080;2022-08-21T13:46:43;1.08;;;0.98;;
24143;SDS011;12307;50.828;6.080;2022-08-21T13:49:10;1.77;;;0.90;;
24143;SDS011;12307;50.828;6.080;2022-08-21T13:51:39;1.63;;;1.08;;
24143;SDS011;12307;50.828;6.080;2022-08-21T13:54:13;1.23;;;1.13;;
24143;SDS011;12307;50.828;6.080;2022-08-21T13:56:42;1.30;;;0.90;;
24143;SDS011;12307;50.828;6.080;2022-08-21T13:59:10;2.42;;;1.40;;
24143;SDS011;12307;50.828;6.080;2022-08-21T14:01:37;1.08;;;0.93;;
24143;SDS011;12307;50.828;6.080;2022-08-21T14:04:16;1.33;;;1.00;;
24143;SDS011;12307;50.828;6.080;2022-08-21T14:06:45;1.88;;;1.20;;
24143;SDS011;12307;50.828;6.080;2022-08-21T14:09:12;2.03;;;1.02;;
24143;SDS011;12307;50.828;6.080;2022-08-21T14:11:50;1.70;;;0.98;;
24143;SDS011;12307;50.828;6.080;2022-08-21T14:14:21;1.33;;;1.02;;
24143;SDS011;12307;50.828;6.080;2022-08-21T14:16:53;1.42;;;1.13;;
24143;SDS011;12307;50.828;6.080;2022-08-21T14:19:21;1.20;;;1.10;;
24143;SDS011;12307;50.828;6.080;2022-08-21T14:21:48;1.85;;;1.15;;
24143;SDS011;12307;50.828;6.080;2022-08-21T14:24:24;1.15;;;0.90;;
24143;SDS011;12307;50.828;6.080;2022-08-21T14:26:52;1.60;;;0.98;;
24143;SDS011;12307;50.828;6.080;2022-08-21T14:29:21;1.60;;;1.20;;
24143;SDS011;12307;50.828;6.080;2022-08-21T14:31:51;1.65;;;1.08;;
24143;SDS011;12307;50.828;6.080;2022-08-21T14:34:18;1.98;;;1.40;;
24143;SDS011;12307;50.828;6.080;2022-08-21T14:36:46;1.63;;;1.00;;
24143;SDS011;12307;50.828;6.080;2022-08-21T14:39:12;1.27;;;1.10;;
24143;SDS011;12307;50.828;6.080;2022-08-21T14:41:38;1.40;;;1.02;;
24143;SDS011;12307;50.828;6.080;2022-08-21T14:44:04;1.50;;;0.98;;
24143;SDS011;12307;50.828;6.080;2022-08-21T14:46:33;1.45;;;1.10;;
24143;SDS011;12307;50.828;6.080;2022-08-21T14:49:00;1.38;;;1.10;;
24143;SDS011;12307;50.828;6.080;2022-08-21T14:51:26;1.55;;;0.90;;
24143;SDS011;12307;50.828;6.080;2022-08-21T14:53:51;1.73;;;0.90;;
24143;SDS011;12307;50.828;6.080;2022-08-21T14:56:18;0.93;;;0.90;;
24143;SDS011;12307;50.828;6.080;2022-08-21T14:58:44;1.88;;;1.10;;